Bonaria — ICUS — position and weather

sailwx.info

Track history (hours):
 
Tides and Currents Weather Stations Pressure Air Temp Water Temp Dewpoint Dewpoint Depression Visibility Wind Speed Wind Dir Waves Ship Positions

Bonaria

Last reported at 2014-Oct-20 20:31 UTC. Time now 2014-Oct-22 15:23 UTC.
Position N 40°55' E 009°32'.

Length 213 m; draft 6.8 m.

Type: Ship. MMSI: 247322400.

Date/timePositionNaut miles runAvg speedWind from/ knotsBaromVisibWave heightAir tempDewpointWater temp
2014-Oct-20 20:31N 40°55' E 009°32'0 0.0
2014-Oct-20 19:15N 40°55' E 009°32'  
2014-Oct-16 21:10N 40°56' E 009°37'4 2.6
2014-Oct-16 19:31N 40°55' E 009°32'0 0.0
2014-Oct-16 17:33N 40°55' E 009°32'0 0.0
2014-Oct-16 16:17N 40°55' E 009°32'0 0.0
2014-Oct-16 14:32N 40°55' E 009°32'0 0.0
2014-Oct-16 13:33N 40°55' E 009°32'0 0.0
2014-Oct-16 12:33N 40°55' E 009°32'0 0.0
2014-Oct-16 11:33N 40°55' E 009°32'0 0.0
2014-Oct-16 10:33N 40°55' E 009°32'0 0.0
2014-Oct-16 09:33N 40°55' E 009°32'0 0.0
2014-Oct-16 08:33N 40°55' E 009°32'0 0.0
2014-Oct-16 07:33N 40°55' E 009°32'0 0.0
2014-Oct-16 06:33N 40°55' E 009°32'0 0.0
2014-Oct-16 05:33N 40°55' E 009°32'0 0.0
2014-Oct-16 04:33N 40°55' E 009°32'2 2.3
2014-Oct-16 03:33N 40°55' E 009°35'2 0.1
2014-Oct-14 16:32N 40°55' E 009°31'0 0.0
2014-Oct-14 15:11N 40°55' E 009°31'0 0.0
2014-Oct-14 14:31N 40°55' E 009°31'0 0.0
2014-Oct-14 13:28N 40°55' E 009°31'0 0.0
2014-Oct-14 11:33N 40°55' E 009°31'0 0.0
2014-Oct-14 10:05N 40°55' E 009°31'0 0.0
2014-Oct-14 09:29N 40°55' E 009°31'0 0.0
2014-Oct-14 08:29N 40°55' E 009°31'0 0.0
2014-Oct-14 06:28N 40°55' E 009°31'0 0.0
2014-Oct-14 04:33N 40°55' E 009°31'2 1.8
2014-Oct-14 03:34N 40°55' E 009°34'6 0.2
2014-Oct-12 21:20N 40°58' E 009°41'8 9.8
2014-Oct-12 20:33N 40°55' E 009°32'0 0.0
2014-Oct-12 19:33N 40°55' E 009°32'0 0.0
2014-Oct-12 17:32N 40°55' E 009°32'0 0.0
2014-Oct-12 16:23N 40°55' E 009°32'0 0.0
2014-Oct-12 14:31N 40°55' E 009°32'0 0.0
2014-Oct-12 12:33N 40°55' E 009°32'0 0.0
2014-Oct-12 11:18N 40°55' E 009°32'0 0.0
2014-Oct-12 10:32N 40°55' E 009°32'0 0.0
2014-Oct-12 09:32N 40°55' E 009°32'0 0.0
2014-Oct-12 07:31N 40°55' E 009°32'0 0.0
2014-Oct-12 06:16N 40°55' E 009°32'0 0.0
2014-Oct-12 05:33N 40°55' E 009°32'0 0.0
2014-Oct-12 04:33N 40°55' E 009°32'  
Track history (hours):
 
Tides and Currents Weather Stations Pressure Air Temp Water Temp Dewpoint Dewpoint Depression Visibility Wind Speed Wind Dir Waves Ship Positions

Bonaria

Last reported at 2014-Oct-20 20:31 UTC. Time now 2014-Oct-22 15:23 UTC.
Position N 40°55' E 009°32'.

Length 213 m; draft 6.8 m.

Type: Ship. MMSI: 247322400.

Date/timePositionNaut miles runAvg speedWind from/ knotsBaromVisibWave heightAir tempDewpointWater temp
2014-Oct-20 20:31N 40°55' E 009°32'0 0.0
2014-Oct-20 19:15N 40°55' E 009°32'  
2014-Oct-16 21:10N 40°56' E 009°37'4 2.6
2014-Oct-16 19:31N 40°55' E 009°32'0 0.0
2014-Oct-16 17:33N 40°55' E 009°32'0 0.0
2014-Oct-16 16:17N 40°55' E 009°32'0 0.0
2014-Oct-16 14:32N 40°55' E 009°32'0 0.0
2014-Oct-16 13:33N 40°55' E 009°32'0 0.0
2014-Oct-16 12:33N 40°55' E 009°32'0 0.0
2014-Oct-16 11:33N 40°55' E 009°32'0 0.0
2014-Oct-16 10:33N 40°55' E 009°32'0 0.0
2014-Oct-16 09:33N 40°55' E 009°32'0 0.0
2014-Oct-16 08:33N 40°55' E 009°32'0 0.0
2014-Oct-16 07:33N 40°55' E 009°32'0 0.0
2014-Oct-16 06:33N 40°55' E 009°32'0 0.0
2014-Oct-16 05:33N 40°55' E 009°32'0 0.0
2014-Oct-16 04:33N 40°55' E 009°32'2 2.3
2014-Oct-16 03:33N 40°55' E 009°35'2 0.1
2014-Oct-14 16:32N 40°55' E 009°31'0 0.0
2014-Oct-14 15:11N 40°55' E 009°31'0 0.0
2014-Oct-14 14:31N 40°55' E 009°31'0 0.0
2014-Oct-14 13:28N 40°55' E 009°31'0 0.0
2014-Oct-14 11:33N 40°55' E 009°31'0 0.0
2014-Oct-14 10:05N 40°55' E 009°31'0 0.0
2014-Oct-14 09:29N 40°55' E 009°31'0 0.0
2014-Oct-14 08:29N 40°55' E 009°31'0 0.0
2014-Oct-14 06:28N 40°55' E 009°31'0 0.0
2014-Oct-14 04:33N 40°55' E 009°31'2 1.8
2014-Oct-14 03:34N 40°55' E 009°34'6 0.2
2014-Oct-12 21:20N 40°58' E 009°41'8 9.8
2014-Oct-12 20:33N 40°55' E 009°32'0 0.0
2014-Oct-12 19:33N 40°55' E 009°32'0 0.0
2014-Oct-12 17:32N 40°55' E 009°32'0 0.0
2014-Oct-12 16:23N 40°55' E 009°32'0 0.0
2014-Oct-12 14:31N 40°55' E 009°32'0 0.0
2014-Oct-12 12:33N 40°55' E 009°32'0 0.0
2014-Oct-12 11:18N 40°55' E 009°32'0 0.0
2014-Oct-12 10:32N 40°55' E 009°32'0 0.0
2014-Oct-12 09:32N 40°55' E 009°32'0 0.0
2014-Oct-12 07:31N 40°55' E 009°32'0 0.0
2014-Oct-12 06:16N 40°55' E 009°32'0 0.0
2014-Oct-12 05:33N 40°55' E 009°32'0 0.0
2014-Oct-12 04:33N 40°55' E 009°32'  

Dump ship's entire track history